Time;durP1;ratioP1;P1;durP2;ratioP2;P2;SDS_P1;SDS_P2;PMS_P1;PMS_P2;Temp;Humidity;BMP_temperature;BMP_pressure;BME280_temperature;BME280_humidity;BME280_pressure;Samples;Min_cycle;Max_cycle;Signal;HPM_P1;HPM_P2
2023/11/27 00:00:20;;;;;;;5.55;4.10;;;8.70;79.40;;;;;;4958526;28;20066;-73
2023/11/27 00:02:45;;;;;;;6.13;4.18;;;8.70;79.50;;;;;;4942309;29;20126;-73
2023/11/27 00:05:11;;;;;;;5.03;3.78;;;8.70;79.40;;;;;;4941518;29;20429;-72
2023/11/27 00:07:37;;;;;;;5.45;3.80;;;8.70;79.40;;;;;;4942994;29;20086;-72
2023/11/27 00:10:03;;;;;;;5.57;4.30;;;8.70;79.40;;;;;;4960173;29;20395;-72
2023/11/27 00:12:28;;;;;;;4.85;3.70;;;8.70;80.10;;;;;;4958264;29;20095;-73
2023/11/27 00:14:54;;;;;;;5.93;4.43;;;8.70;79.50;;;;;;4956889;29;20043;-73
2023/11/27 00:17:20;;;;;;;5.35;4.45;;;8.70;79.50;;;;;;4958234;29;20527;-74
2023/11/27 00:19:45;;;;;;;5.80;4.20;;;8.70;79.50;;;;;;4941484;29;20035;-73
2023/11/27 00:22:11;;;;;;;5.97;4.55;;;8.70;79.50;;;;;;4941282;28;20068;-75
2023/11/27 00:24:38;;;;;;;5.55;4.85;;;8.70;79.50;;;;;;4939727;29;20046;-73
2023/11/27 00:27:04;;;;;;;5.18;4.03;;;8.70;79.50;;;;;;4958054;28;20172;-74
2023/11/27 00:29:29;;;;;;;5.40;3.92;;;8.70;79.50;;;;;;4941017;29;20063;-73
2023/11/27 00:31:55;;;;;;;6.03;4.05;;;8.70;79.50;;;;;;4957242;29;20039;-74
2023/11/27 00:34:21;;;;;;;5.47;4.20;;;8.70;79.50;;;;;;4956951;29;20035;-72
2023/11/27 00:36:47;;;;;;;5.30;3.65;;;8.60;79.40;;;;;;4941300;29;20483;-73
2023/11/27 00:39:13;;;;;;;4.97;4.28;;;8.70;79.50;;;;;;4958484;29;20111;-74
2023/11/27 00:41:38;;;;;;;5.63;4.45;;;8.70;79.50;;;;;;4956596;29;20027;-73
2023/11/27 00:44:04;;;;;;;5.63;3.85;;;8.70;79.50;;;;;;4958160;29;20468;-74
2023/11/27 00:46:30;;;;;;;5.63;4.03;;;8.70;79.50;;;;;;4940178;29;20488;-73
2023/11/27 00:48:55;;;;;;;5.10;4.10;;;8.70;79.50;;;;;;4958057;29;20039;-74
2023/11/27 00:51:22;;;;;;;5.40;3.97;;;8.70;79.50;;;;;;4957356;29;20035;-74
2023/11/27 00:53:48;;;;;;;6.25;4.38;;;8.60;79.50;;;;;;4956399;29;20043;-74
2023/11/27 00:56:14;;;;;;;5.93;4.45;;;8.60;79.60;;;;;;4955980;29;20476;-74
2023/11/27 00:58:39;;;;;;;4.53;3.85;;;8.60;79.60;;;;;;4940289;29;20035;-74
2023/11/27 01:01:05;;;;;;;5.53;4.43;;;8.60;79.60;;;;;;4956167;29;20119;-74
2023/11/27 01:03:32;;;;;;;6.88;4.65;;;8.60;79.60;;;;;;4940172;29;20357;-74
2023/11/27 01:05:58;;;;;;;5.72;4.28;;;8.60;79.60;;;;;;4956206;29;20035;-74
2023/11/27 01:08:24;;;;;;;5.40;4.10;;;8.60;79.70;;;;;;4956254;29;20027;-74
2023/11/27 01:10:51;;;;;;;4.65;3.85;;;8.60;79.60;;;;;;4940173;29;20488;-73
2023/11/27 01:13:17;;;;;;;5.57;4.55;;;8.60;80.30;;;;;;4956641;29;20054;-74
2023/11/27 01:15:42;;;;;;;6.72;4.30;;;8.60;79.60;;;;;;4956960;29;20396;-74
2023/11/27 01:18:08;;;;;;;5.07;4.07;;;8.60;79.60;;;;;;4955517;29;20134;-73
2023/11/27 01:20:34;;;;;;;5.40;4.10;;;8.60;79.60;;;;;;4939581;29;20032;-73
2023/11/27 01:23:00;;;;;;;5.30;4.20;;;8.60;79.70;;;;;;4956894;29;20134;-75
2023/11/27 01:25:26;;;;;;;5.40;4.00;;;8.60;79.70;;;;;;4955699;29;20484;-74
2023/11/27 01:27:51;;;;;;;5.72;4.22;;;8.60;79.60;;;;;;4956947;29;20082;-74
2023/11/27 01:30:18;;;;;;;5.03;3.60;;;8.60;79.70;;;;;;4955719;29;20031;-74
2023/11/27 01:32:47;;;;;;;5.40;4.28;;;8.60;79.70;;;;;;4956289;29;20421;-74
2023/11/27 01:35:13;;;;;;;5.50;3.95;;;8.60;79.70;;;;;;4939174;29;20098;-73
2023/11/27 01:37:39;;;;;;;6.25;4.20;;;8.60;79.70;;;;;;4956530;28;20035;-74
2023/11/27 01:40:05;;;;;;;5.13;4.18;;;8.60;79.70;;;;;;4955419;29;20523;-75
2023/11/27 01:42:31;;;;;;;5.38;3.88;;;8.60;79.70;;;;;;4923802;29;20105;-74
2023/11/27 01:44:57;;;;;;;5.10;4.10;;;8.60;79.70;;;;;;4955470;29;20480;-73
2023/11/27 01:47:25;;;;;;;5.05;4.00;;;8.60;79.70;;;;;;4956575;29;20035;-74
2023/11/27 01:49:50;;;;;;;5.15;3.75;;;8.60;79.70;;;;;;4956588;28;20039;-73
2023/11/27 01:52:17;;;;;;;4.97;3.97;;;8.60;79.70;;;;;;4955098;29;20463;-75
2023/11/27 01:54:43;;;;;;;4.30;3.78;;;8.60;79.70;;;;;;4939316;29;20468;-74
2023/11/27 01:57:15;;;;;;;6.18;4.60;;;8.60;79.70;;;;;;4955196;29;20046;-74
2023/11/27 01:59:45;;;;;;;4.68;3.47;;;8.50;79.70;;;;;;4924460;29;20038;-74
2023/11/27 02:02:12;;;;;;;5.43;4.07;;;8.60;79.70;;;;;;4955136;29;20035;-74
2023/11/27 02:04:38;;;;;;;5.35;3.92;;;8.60;79.70;;;;;;4954706;29;20031;-74
2023/11/27 02:07:03;;;;;;;5.60;4.18;;;8.60;79.70;;;;;;4955728;29;20038;-73
2023/11/27 02:09:31;;;;;;;4.55;3.70;;;8.60;79.70;;;;;;4955423;29;20110;-74
2023/11/27 02:11:57;;;;;;;5.03;3.83;;;8.60;79.70;;;;;;4954766;29;20464;-73
2023/11/27 02:14:22;;;;;;;5.28;3.60;;;8.60;79.70;;;;;;4938932;29;20037;-74
2023/11/27 02:16:49;;;;;;;5.60;4.20;;;8.60;79.70;;;;;;4922810;29;20143;-74
2023/11/27 02:19:14;;;;;;;5.63;3.92;;;8.60;79.70;;;;;;4954747;29;20404;-75
2023/11/27 02:21:41;;;;;;;4.78;3.58;;;8.60;79.70;;;;;;4955293;29;20034;-74
2023/11/27 02:24:07;;;;;;;5.18;3.65;;;8.60;79.80;;;;;;4938822;29;20035;-74
2023/11/27 02:26:33;;;;;;;4.15;3.60;;;8.50;79.70;;;;;;4922881;29;20039;-74
2023/11/27 02:28:58;;;;;;;5.57;3.88;;;8.50;79.70;;;;;;4955420;29;20031;-74
2023/11/27 02:31:24;;;;;;;5.07;3.85;;;8.50;79.70;;;;;;4954878;29;20492;-74
2023/11/27 02:33:50;;;;;;;5.93;3.83;;;8.50;79.70;;;;;;4954334;29;20081;-74
2023/11/27 02:36:16;;;;;;;4.53;3.53;;;8.50;79.70;;;;;;4954426;29;20066;-73
2023/11/27 02:38:42;;;;;;;5.40;3.75;;;8.50;80.30;;;;;;4954327;29;20039;-73
2023/11/27 02:41:08;;;;;;;5.35;3.65;;;8.50;79.70;;;;;;4939235;29;20035;-73
2023/11/27 02:43:34;;;;;;;5.43;4.07;;;8.50;79.70;;;;;;4938670;29;20031;-74
2023/11/27 02:46:00;;;;;;;5.60;3.42;;;8.50;79.70;;;;;;4937961;29;20508;-73
2023/11/27 02:48:28;;;;;;;4.78;3.33;;;8.60;79.80;;;;;;4938714;29;20388;-73
2023/11/27 02:50:53;;;;;;;5.07;3.88;;;8.50;79.70;;;;;;4938613;29;20035;-73
2023/11/27 02:53:19;;;;;;;4.32;3.28;;;8.50;79.70;;;;;;4938576;29;20061;-73
2023/11/27 02:55:45;;;;;;;5.85;3.70;;;8.50;79.80;;;;;;4954032;29;20066;-73
2023/11/27 02:58:11;;;;;;;4.78;3.53;;;8.50;79.70;;;;;;4938375;29;20110;-74
2023/11/27 03:00:37;;;;;;;4.65;3.65;;;8.50;79.80;;;;;;4938426;29;20059;-74
2023/11/27 03:03:03;;;;;;;4.70;3.53;;;8.50;79.70;;;;;;4938104;29;20090;-73
2023/11/27 03:05:30;;;;;;;4.85;3.78;;;8.50;79.70;;;;;;4954059;29;20476;-74
2023/11/27 03:07:56;;;;;;;4.78;3.60;;;8.50;79.70;;;;;;4938115;29;20036;-73
2023/11/27 03:10:22;;;;;;;5.45;3.70;;;8.50;79.70;;;;;;4938821;29;20421;-73
2023/11/27 03:12:48;;;;;;;5.60;3.88;;;8.50;79.80;;;;;;4923009;29;20126;-73
2023/11/27 03:15:15;;;;;;;5.97;3.78;;;8.50;79.70;;;;;;4953940;29;20476;-73
2023/11/27 03:17:43;;;;;;;5.53;4.00;;;8.50;79.80;;;;;;4955536;29;20047;-73
2023/11/27 03:20:12;;;;;;;5.55;3.85;;;8.50;79.80;;;;;;4954774;28;20374;-73
2023/11/27 03:22:39;;;;;;;5.20;3.92;;;8.50;79.80;;;;;;4954201;29;20035;-73
2023/11/27 03:25:05;;;;;;;5.32;3.55;;;8.40;79.70;;;;;;4955254;28;20102;-74
2023/11/27 03:27:32;;;;;;;6.18;3.45;;;8.50;79.80;;;;;;4938602;29;20456;-73
2023/11/27 03:29:57;;;;;;;5.35;3.97;;;8.40;79.70;;;;;;4938072;29;20045;-73
2023/11/27 03:32:23;;;;;;;5.25;4.13;;;8.50;79.80;;;;;;4954571;29;20035;-73
2023/11/27 03:34:49;;;;;;;5.10;3.95;;;8.40;79.70;;;;;;4953741;29;20043;-73
2023/11/27 03:37:15;;;;;;;5.18;3.80;;;8.40;79.70;;;;;;4954497;29;20028;-74
2023/11/27 03:39:40;;;;;;;4.63;3.90;;;8.50;79.70;;;;;;4955113;29;20023;-74
2023/11/27 03:42:06;;;;;;;5.43;3.88;;;8.50;79.80;;;;;;4937850;29;20027;-73
2023/11/27 03:44:32;;;;;;;4.30;3.45;;;8.50;79.80;;;;;;4954044;29;20170;-73
2023/11/27 03:46:58;;;;;;;5.35;4.00;;;8.50;79.80;;;;;;4954949;29;20118;-73
2023/11/27 03:49:23;;;;;;;5.65;3.85;;;8.50;79.70;;;;;;4953839;29;20039;-73
2023/11/27 03:51:49;;;;;;;4.80;3.83;;;8.40;79.70;;;;;;4953796;29;20036;-74
2023/11/27 03:54:15;;;;;;;5.72;3.50;;;8.50;79.70;;;;;;4954924;29;20035;-73
2023/11/27 03:56:41;;;;;;;5.13;4.03;;;8.40;79.70;;;;;;4937513;29;20090;-73
2023/11/27 03:59:08;;;;;;;5.60;3.80;;;8.40;79.70;;;;;;4957278;28;20031;-73
2023/11/27 04:01:34;;;;;;;5.63;4.13;;;8.40;79.80;;;;;;4957379;29;20032;-73
2023/11/27 04:03:59;;;;;;;4.85;3.58;;;8.40;79.70;;;;;;4925314;29;20043;-75
2023/11/27 04:06:31;;;;;;;5.68;4.10;;;8.40;80.40;;;;;;4940870;29;20107;-73
2023/11/27 04:09:01;;;;;;;5.72;3.60;;;8.40;79.80;;;;;;4940877;29;20071;-73
2023/11/27 04:11:27;;;;;;;5.47;4.00;;;8.40;79.80;;;;;;4957649;29;20042;-73
2023/11/27 04:13:57;;;;;;;5.00;3.90;;;8.40;79.70;;;;;;4958553;28;20035;-73
2023/11/27 04:16:24;;;;;;;5.28;3.90;;;8.40;79.70;;;;;;4956992;29;20077;-74
2023/11/27 04:18:50;;;;;;;5.35;3.83;;;8.40;79.70;;;;;;4941156;29;20091;-74
2023/11/27 04:21:19;;;;;;;4.38;3.50;;;8.40;79.80;;;;;;4956805;29;20066;-73
2023/11/27 04:23:48;;;;;;;4.68;3.50;;;8.40;79.80;;;;;;4956768;29;20045;-73
2023/11/27 04:26:15;;;;;;;5.80;3.58;;;8.40;79.80;;;;;;4957954;28;20121;-74
2023/11/27 04:28:42;;;;;;;4.90;3.67;;;8.40;79.80;;;;;;4956670;29;20170;-73
2023/11/27 04:31:10;;;;;;;4.68;3.70;;;8.40;79.80;;;;;;4940921;29;20440;-73
2023/11/27 04:33:36;;;;;;;4.80;3.45;;;8.40;79.80;;;;;;4941170;29;20046;-73
2023/11/27 04:36:02;;;;;;;4.47;3.30;;;8.40;79.80;;;;;;4956676;29;20039;-73
2023/11/27 04:38:28;;;;;;;4.65;3.45;;;8.40;79.80;;;;;;4940775;29;20400;-73
2023/11/27 04:40:54;;;;;;;4.80;3.50;;;8.40;79.80;;;;;;4956747;29;20038;-75
2023/11/27 04:43:22;;;;;;;5.38;3.30;;;8.40;79.80;;;;;;4957762;29;20036;-73
2023/11/27 04:45:48;;;;;;;4.60;3.67;;;8.40;79.80;;;;;;4940461;29;20102;-74
2023/11/27 04:48:13;;;;;;;4.78;3.45;;;8.40;79.80;;;;;;4957423;29;20058;-73
2023/11/27 04:50:39;;;;;;;4.57;3.58;;;8.40;79.80;;;;;;4957424;28;20415;-74
2023/11/27 04:53:05;;;;;;;4.78;3.40;;;8.40;79.80;;;;;;4955930;29;20045;-73
2023/11/27 04:55:32;;;;;;;4.32;3.20;;;8.40;79.80;;;;;;4956320;29;20077;-73
2023/11/27 04:57:58;;;;;;;4.30;3.20;;;8.40;79.80;;;;;;4925073;29;20039;-74
2023/11/27 05:00:24;;;;;;;4.55;3.40;;;8.40;79.80;;;;;;4956461;29;20122;-74
2023/11/27 05:02:50;;;;;;;4.47;3.40;;;8.40;79.80;;;;;;4940578;29;20038;-74
2023/11/27 05:05:16;;;;;;;4.13;3.10;;;8.40;79.80;;;;;;4957622;29;20046;-74
2023/11/27 05:07:42;;;;;;;4.53;3.40;;;8.40;79.80;;;;;;4956273;29;20031;-73
2023/11/27 05:10:08;;;;;;;4.28;3.20;;;8.40;79.80;;;;;;4955324;28;20027;-73
2023/11/27 05:12:34;;;;;;;3.78;3.38;;;8.40;79.80;;;;;;4955897;29;20473;-74
2023/11/27 05:15:01;;;;;;;4.32;3.33;;;8.40;79.80;;;;;;4939625;29;20114;-73
2023/11/27 05:17:27;;;;;;;4.40;3.38;;;8.40;79.80;;;;;;4957093;28;20506;-73
2023/11/27 05:19:53;;;;;;;4.82;2.95;;;8.40;79.80;;;;;;4924435;29;20032;-74
2023/11/27 05:22:19;;;;;;;4.28;3.33;;;8.40;79.80;;;;;;4955808;29;20472;-74
2023/11/27 05:24:44;;;;;;;3.72;2.95;;;8.40;79.80;;;;;;4956082;29;20039;-75
2023/11/27 05:27:10;;;;;;;4.10;3.20;;;8.40;79.80;;;;;;4956013;29;20034;-73
2023/11/27 05:29:36;;;;;;;3.63;2.90;;;8.40;79.80;;;;;;4957008;29;20035;-74
2023/11/27 05:32:07;;;;;;;3.50;2.72;;;8.40;79.80;;;;;;4955441;29;20033;-74
2023/11/27 05:34:34;;;;;;;3.63;3.00;;;8.40;79.80;;;;;;4955243;29;20046;-75
2023/11/27 05:37:00;;;;;;;4.05;3.13;;;8.40;79.80;;;;;;4955390;29;20035;-73
2023/11/27 05:39:26;;;;;;;4.07;2.88;;;8.40;79.80;;;;;;4955142;29;20045;-74
2023/11/27 05:41:52;;;;;;;3.85;2.83;;;8.40;79.80;;;;;;4956988;29;20058;-74
2023/11/27 05:44:19;;;;;;;4.35;3.08;;;8.30;79.80;;;;;;4939493;29;20039;-73
2023/11/27 05:46:45;;;;;;;3.60;2.95;;;8.30;79.80;;;;;;4955121;29;20035;-73
2023/11/27 05:49:11;;;;;;;3.35;2.92;;;8.30;79.80;;;;;;4955383;29;20035;-73
2023/11/27 05:51:39;;;;;;;4.20;2.90;;;8.30;79.80;;;;;;4956805;29;20035;-73
2023/11/27 05:54:09;;;;;;;3.38;2.67;;;8.30;79.80;;;;;;4939992;29;20035;-73
2023/11/27 05:56:35;;;;;;;4.00;2.70;;;8.30;79.80;;;;;;4939177;29;20043;-74
2023/11/27 05:59:00;;;;;;;2.83;2.53;;;8.40;79.80;;;;;;4939148;29;20031;-74
2023/11/27 06:01:26;;;;;;;4.03;3.08;;;8.30;79.80;;;;;;4939158;29;20039;-73
2023/11/27 06:03:52;;;;;;;3.17;2.60;;;8.30;79.80;;;;;;4954730;29;20587;-75
2023/11/27 06:06:18;;;;;;;3.13;2.42;;;8.30;79.80;;;;;;4955154;29;20499;-73
2023/11/27 06:08:44;;;;;;;3.08;2.70;;;8.30;79.80;;;;;;4939004;29;20074;-73
2023/11/27 06:11:11;;;;;;;2.58;2.38;;;8.30;79.80;;;;;;4954674;29;20488;-73
2023/11/27 06:13:37;;;;;;;3.67;2.80;;;8.30;79.80;;;;;;4938903;29;20499;-73
2023/11/27 06:16:03;;;;;;;3.33;2.58;;;8.30;79.80;;;;;;4938750;29;20031;-74
2023/11/27 06:18:29;;;;;;;3.47;2.47;;;8.30;79.80;;;;;;4954803;29;20054;-73
2023/11/27 06:20:55;;;;;;;2.60;2.40;;;8.30;79.80;;;;;;4937949;29;20035;-74
2023/11/27 06:23:20;;;;;;;2.95;2.38;;;8.30;79.80;;;;;;4955009;29;20110;-74
2023/11/27 06:25:46;;;;;;;2.70;2.45;;;8.30;79.80;;;;;;4938919;29;20035;-73
2023/11/27 06:28:13;;;;;;;3.17;2.47;;;8.30;79.80;;;;;;4954411;29;20391;-73
2023/11/27 06:30:42;;;;;;;3.08;2.40;;;8.30;79.80;;;;;;4954139;29;20031;-73
2023/11/27 06:33:08;;;;;;;3.38;2.42;;;8.30;79.80;;;;;;4938758;29;20117;-73
2023/11/27 06:35:35;;;;;;;3.08;2.53;;;8.30;79.80;;;;;;4954607;29;20070;-73
2023/11/27 06:38:02;;;;;;;3.30;2.30;;;8.30;79.80;;;;;;4938507;29;20078;-73
2023/11/27 06:40:28;;;;;;;2.70;2.25;;;8.30;79.80;;;;;;4938563;29;20089;-74
2023/11/27 06:42:55;;;;;;;3.38;2.50;;;8.30;79.80;;;;;;4938703;29;20146;-75
2023/11/27 06:45:21;;;;;;;2.92;2.50;;;8.30;79.80;;;;;;4938876;29;20039;-74
2023/11/27 06:47:48;;;;;;;3.17;2.42;;;8.30;79.80;;;;;;4954354;29;20125;-74
2023/11/27 06:50:15;;;;;;;3.05;2.50;;;8.30;79.80;;;;;;4938999;29;20039;-73
2023/11/27 06:52:41;;;;;;;2.90;2.60;;;8.30;79.80;;;;;;4954303;29;20042;-74
2023/11/27 06:55:08;;;;;;;2.50;2.30;;;8.20;79.80;;;;;;4922050;29;20050;-73
2023/11/27 06:57:35;;;;;;;3.03;2.33;;;8.30;79.80;;;;;;4955827;28;20158;-74
2023/11/27 07:00:01;;;;;;;2.20;2.00;;;8.30;79.80;;;;;;4956094;29;20465;-74
2023/11/27 07:02:29;;;;;;;3.13;2.08;;;8.30;79.80;;;;;;4954252;29;20027;-74
2023/11/27 07:04:55;;;;;;;2.80;2.33;;;8.20;79.80;;;;;;4938114;29;20039;-75
2023/11/27 07:07:21;;;;;;;2.63;2.30;;;8.30;79.80;;;;;;4953880;29;20035;-75
2023/11/27 07:09:47;;;;;;;3.35;2.22;;;8.20;79.80;;;;;;4954997;28;20476;-74
2023/11/27 07:12:15;;;;;;;2.20;2.00;;;8.30;79.80;;;;;;4953847;29;20031;-73
2023/11/27 07:14:40;;;;;;;2.20;2.00;;;8.30;79.90;;;;;;4922374;29;20039;-73
2023/11/27 07:17:07;;;;;;;2.42;2.10;;;8.30;79.90;;;;;;4955326;29;20498;-73
2023/11/27 07:19:33;;;;;;;2.22;2.00;;;8.20;79.80;;;;;;4955052;28;20078;-73
2023/11/27 07:21:59;;;;;;;2.47;2.20;;;8.20;79.80;;;;;;4937814;29;20031;-75
2023/11/27 07:24:25;;;;;;;2.50;2.25;;;8.30;79.80;;;;;;4955226;28;20043;-73
2023/11/27 07:26:50;;;;;;;2.65;2.08;;;8.20;79.80;;;;;;4954646;29;20047;-73
2023/11/27 07:29:16;;;;;;;2.40;2.20;;;8.20;79.80;;;;;;4937722;29;20523;-74
2023/11/27 07:31:42;;;;;;;2.50;2.00;;;8.20;79.80;;;;;;4955203;28;20460;-74
2023/11/27 07:34:08;;;;;;;2.50;2.10;;;8.20;79.80;;;;;;4957325;29;20034;-73
2023/11/27 07:36:37;;;;;;;2.35;2.00;;;8.20;79.80;;;;;;4957623;29;20043;-73
2023/11/27 07:39:02;;;;;;;2.65;2.20;;;8.20;79.80;;;;;;4941964;29;20043;-73
2023/11/27 07:41:28;;;;;;;2.70;2.40;;;8.20;79.80;;;;;;4925966;29;20035;-73
2023/11/27 07:43:55;;;;;;;3.33;2.10;;;8.20;79.80;;;;;;4957574;29;20042;-75
2023/11/27 07:46:21;;;;;;;2.33;2.00;;;8.20;79.80;;;;;;4958117;29;20050;-75
2023/11/27 07:48:48;;;;;;;2.25;2.00;;;8.20;79.80;;;;;;4941995;29;20129;-74
2023/11/27 07:51:13;;;;;;;2.20;2.00;;;8.20;79.80;;;;;;4960003;29;20488;-74
2023/11/27 07:53:39;;;;;;;2.20;2.00;;;8.20;79.80;;;;;;4927811;29;20054;-75
2023/11/27 07:56:07;;;;;;;2.97;2.10;;;8.20;79.80;;;;;;4942189;29;20114;-74
2023/11/27 07:58:32;;;;;;;2.15;1.85;;;8.10;79.80;;;;;;4957625;29;20035;-74
2023/11/27 08:00:58;;;;;;;2.45;2.03;;;8.20;79.80;;;;;;4957667;29;20038;-74
2023/11/27 08:03:24;;;;;;;2.53;2.05;;;8.20;79.80;;;;;;4958837;29;20042;-74
2023/11/27 08:05:52;;;;;;;2.08;1.75;;;8.20;79.80;;;;;;4925444;29;20046;-75
2023/11/27 08:08:17;;;;;;;2.40;2.20;;;8.10;79.80;;;;;;4941514;29;20111;-74
2023/11/27 08:10:45;;;;;;;2.17;1.98;;;8.20;79.80;;;;;;4941657;29;20122;-75
2023/11/27 08:13:13;;;;;;;2.10;1.90;;;8.20;79.90;;;;;;4958536;28;20031;-74
2023/11/27 08:15:39;;;;;;;2.47;2.13;;;8.10;79.80;;;;;;4941165;29;20090;-73
2023/11/27 08:18:05;;;;;;;2.15;1.80;;;8.10;79.80;;;;;;4958242;28;20047;-75
2023/11/27 08:20:32;;;;;;;2.15;1.90;;;8.10;79.80;;;;;;4956876;29;20066;-74
2023/11/27 08:22:59;;;;;;;2.90;2.00;;;8.10;79.80;;;;;;4957795;29;20039;-74
2023/11/27 08:25:28;;;;;;;2.17;1.98;;;8.10;79.80;;;;;;4940893;29;20054;-74
2023/11/27 08:27:55;;;;;;;2.70;2.20;;;8.10;79.80;;;;;;4957800;29;20046;-75
2023/11/27 08:30:22;;;;;;;2.20;2.00;;;8.10;79.80;;;;;;4941084;29;20035;-74
2023/11/27 08:32:49;;;;;;;2.30;2.10;;;8.10;79.80;;;;;;4956930;29;20069;-74
2023/11/27 08:35:15;;;;;;;3.13;2.00;;;8.10;79.80;;;;;;4957713;28;20039;-74
2023/11/27 08:37:41;;;;;;;2.30;2.10;;;8.10;79.80;;;;;;4925121;29;20031;-74
2023/11/27 08:40:09;;;;;;;2.13;1.92;;;8.10;79.80;;;;;;4957311;29;20028;-74
2023/11/27 08:42:39;;;;;;;2.65;2.05;;;8.10;79.80;;;;;;4957711;29;20062;-74
2023/11/27 08:45:18;;;;;;;2.20;2.00;;;8.10;79.80;;;;;;4956630;28;20086;-75
2023/11/27 08:47:50;;;;;;;2.33;2.00;;;8.10;79.80;;;;;;4940854;29;20468;-73
2023/11/27 08:50:29;;;;;;;2.42;2.05;;;8.10;79.80;;;;;;4958041;28;20399;-74
2023/11/27 08:52:57;;;;;;;3.08;2.30;;;8.10;79.80;;;;;;4957553;28;20027;-74
2023/11/27 08:55:28;;;;;;;2.15;1.95;;;8.10;79.80;;;;;;4940533;29;20477;-73
2023/11/27 08:58:00;;;;;;;2.25;2.05;;;8.10;79.90;;;;;;4957377;28;20039;-73
2023/11/27 09:00:28;;;;;;;3.03;2.13;;;8.10;79.80;;;;;;4925042;29;20046;-74
2023/11/27 09:02:58;;;;;;;2.10;1.90;;;8.10;79.80;;;;;;4956486;29;20069;-74
2023/11/27 09:05:34;;;;;;;2.42;2.17;;;8.10;79.80;;;;;;4957699;28;20058;-74
2023/11/27 09:08:04;;;;;;;1.90;1.80;;;8.10;79.80;;;;;;4957792;28;20102;-74
2023/11/27 09:10:32;;;;;;;2.00;1.80;;;8.10;79.80;;;;;;4940722;29;20119;-74
2023/11/27 09:12:57;;;;;;;2.60;2.20;;;8.10;79.80;;;;;;4957095;28;20050;-74
2023/11/27 09:15:23;;;;;;;2.40;2.20;;;8.10;79.80;;;;;;4924236;29;20484;-74
2023/11/27 09:17:49;;;;;;;2.33;2.00;;;8.10;79.90;;;;;;4957408;29;20373;-75
2023/11/27 09:20:15;;;;;;;2.47;2.00;;;8.10;79.80;;;;;;4955939;29;20047;-74
2023/11/27 09:22:41;;;;;;;1.95;1.83;;;8.10;79.90;;;;;;4955792;29;20043;-74
2023/11/27 09:25:12;;;;;;;2.25;2.03;;;8.10;80.50;;;;;;4957340;28;20118;-75
2023/11/27 09:27:41;;;;;;;2.13;1.90;;;8.10;79.80;;;;;;4957666;29;20063;-74
2023/11/27 09:30:08;;;;;;;2.53;2.22;;;8.10;79.80;;;;;;4956072;29;20034;-75
2023/11/27 09:32:35;;;;;;;2.47;2.28;;;8.10;79.80;;;;;;4956814;28;20114;-74
2023/11/27 09:35:04;;;;;;;2.17;1.90;;;8.10;79.90;;;;;;4939555;29;20419;-74
2023/11/27 09:37:32;;;;;;;2.00;1.83;;;8.10;79.90;;;;;;4939481;29;20039;-74
2023/11/27 09:39:59;;;;;;;2.20;2.00;;;8.10;79.80;;;;;;4957143;28;20404;-74
2023/11/27 09:42:35;;;;;;;2.42;1.88;;;8.10;79.90;;;;;;4956125;29;20487;-74
2023/11/27 09:45:09;;;;;;;3.03;2.20;;;8.10;79.90;;;;;;4956592;29;20377;-74
2023/11/27 09:47:36;;;;;;;2.80;2.20;;;8.10;79.80;;;;;;4940272;29;20130;-74
2023/11/27 09:50:04;;;;;;;2.25;2.05;;;8.10;79.80;;;;;;4956057;29;20035;-74
2023/11/27 09:52:53;;;;;;;2.15;1.98;;;8.10;79.80;;;;;;4956738;28;20027;-74
2023/11/27 09:55:20;;;;;;;2.22;2.00;;;8.10;79.90;;;;;;4939505;29;20384;-75
2023/11/27 09:57:48;;;;;;;2.25;1.90;;;8.10;79.80;;;;;;4955532;29;20031;-75
2023/11/27 10:00:21;;;;;;;2.60;1.98;;;8.10;79.80;;;;;;4956087;28;20034;-75
2023/11/27 10:02:48;;;;;;;2.20;2.00;;;8.10;79.90;;;;;;4939653;29;20391;-74
2023/11/27 10:05:21;;;;;;;2.22;2.03;;;8.10;79.80;;;;;;4954993;29;20040;-74
2023/11/27 10:07:49;;;;;;;2.25;2.05;;;8.10;79.90;;;;;;4956130;28;20054;-73
2023/11/27 10:10:25;;;;;;;2.20;2.00;;;8.10;79.80;;;;;;4924047;29;20425;-74
2023/11/27 10:12:57;;;;;;;2.10;1.90;;;8.10;79.80;;;;;;4924546;29;20035;-74
2023/11/27 10:15:26;;;;;;;2.50;1.98;;;8.10;79.80;;;;;;4954796;29;20122;-76
2023/11/27 10:17:53;;;;;;;2.17;1.98;;;8.10;79.80;;;;;;4954811;29;20118;-75
2023/11/27 10:20:21;;;;;;;2.10;1.90;;;8.10;79.90;;;;;;4955179;29;20035;-76
2023/11/27 10:22:47;;;;;;;2.25;2.05;;;8.10;79.80;;;;;;4955832;28;20082;-74
2023/11/27 10:25:14;;;;;;;2.30;2.05;;;8.10;79.80;;;;;;4955020;29;20032;-74
2023/11/27 10:27:46;;;;;;;2.35;2.10;;;8.10;79.90;;;;;;4938686;29;20039;-75
2023/11/27 10:30:24;;;;;;;2.20;2.00;;;8.10;79.90;;;;;;4955731;29;20031;-76
2023/11/27 10:32:54;;;;;;;2.40;2.10;;;8.10;79.90;;;;;;4939552;29;20102;-76
2023/11/27 10:35:22;;;;;;;2.50;2.10;;;8.10;79.90;;;;;;4954609;29;20039;-75
2023/11/27 10:37:49;;;;;;;2.28;2.08;;;8.10;79.80;;;;;;4939078;29;20039;-75
2023/11/27 10:40:17;;;;;;;1.98;1.77;;;8.10;79.90;;;;;;4954411;29;20442;-78
2023/11/27 10:42:47;;;;;;;2.08;1.83;;;8.10;79.90;;;;;;4955235;29;20093;-76
2023/11/27 10:45:23;;;;;;;2.25;2.05;;;8.10;79.90;;;;;;4954847;29;20035;-76
2023/11/27 10:47:50;;;;;;;1.90;1.80;;;8.10;79.90;;;;;;4955538;28;20031;-75
2023/11/27 10:50:17;;;;;;;2.28;1.98;;;8.10;79.80;;;;;;4938225;29;20047;-76
2023/11/27 10:52:44;;;;;;;1.85;1.75;;;8.10;79.80;;;;;;4955905;28;20035;-76
2023/11/27 10:55:18;;;;;;;2.10;1.90;;;8.10;79.90;;;;;;4954019;29;20047;-76
2023/11/27 10:57:45;;;;;;;2.22;1.80;;;8.10;79.90;;;;;;4938763;29;20042;-76
2023/11/27 11:00:38;;;;;;;2.15;1.95;;;8.10;79.80;;;;;;4938598;29;20475;-76
2023/11/27 11:03:14;;;;;;;2.15;1.95;;;8.10;79.90;;;;;;4954911;29;20035;-77
2023/11/27 11:05:51;;;;;;;1.95;1.80;;;8.10;79.80;;;;;;4955070;29;20121;-76
2023/11/27 11:08:22;;;;;;;2.47;2.10;;;8.10;79.90;;;;;;4955094;28;20039;-76
2023/11/27 11:10:48;;;;;;;2.28;2.08;;;8.10;79.80;;;;;;4938467;29;20035;-75
2023/11/27 11:13:17;;;;;;;2.20;2.00;;;8.20;79.90;;;;;;4954060;29;20527;-76
2023/11/27 11:16:13;;;;;;;1.90;1.80;;;8.10;79.90;;;;;;4954062;29;20071;-76
2023/11/27 11:18:57;;;;;;;2.20;2.00;;;8.10;79.90;;;;;;4955076;29;20051;-76
2023/11/27 11:21:39;;;;;;;1.90;1.80;;;8.10;79.80;;;;;;4954487;29;20062;-76
2023/11/27 11:24:22;;;;;;;2.65;2.10;;;8.20;79.90;;;;;;4955574;29;20023;-75
2023/11/27 11:27:17;;;;;;;2.13;1.92;;;8.20;79.90;;;;;;4954199;29;20376;-76
2023/11/27 11:29:44;;;;;;;2.10;1.90;;;8.10;79.90;;;;;;4954308;29;20032;-76
2023/11/27 11:32:16;;;;;;;2.30;2.10;;;8.10;79.80;;;;;;4954223;29;20325;-75
2023/11/27 11:34:43;;;;;;;2.10;1.90;;;8.20;79.90;;;;;;4954708;29;20027;-76
2023/11/27 11:37:15;;;;;;;1.90;1.70;;;8.10;79.80;;;;;;4955322;28;20070;-76
2023/11/27 11:39:53;;;;;;;2.00;1.90;;;8.20;79.90;;;;;;4954861;28;20131;-76
2023/11/27 11:42:32;;;;;;;2.28;2.08;;;8.20;79.90;;;;;;4955194;28;20039;-77
2023/11/27 11:45:26;;;;;;;2.00;1.80;;;8.20;79.90;;;;;;4938195;29;20063;-77
2023/11/27 11:48:00;;;;;;;1.88;1.75;;;8.20;79.90;;;;;;4953863;29;20035;-75
2023/11/27 11:50:42;;;;;;;2.30;2.10;;;8.20;79.90;;;;;;4953660;29;20480;-75
2023/11/27 11:53:14;;;;;;;1.80;1.70;;;8.20;79.90;;;;;;4953604;29;20059;-75
2023/11/27 11:55:40;;;;;;;2.28;2.05;;;8.20;79.90;;;;;;4953484;29;20044;-75
2023/11/27 11:58:18;;;;;;;2.15;1.95;;;8.20;79.90;;;;;;4937895;29;20484;-76
2023/11/27 12:00:47;;;;;;;2.33;2.00;;;8.20;79.90;;;;;;4954032;29;20043;-75
2023/11/27 12:03:15;;;;;;;2.10;1.90;;;8.20;79.90;;;;;;4954677;28;20039;-76
2023/11/27 12:05:50;;;;;;;1.80;1.70;;;8.20;79.90;;;;;;4921911;29;20047;-76
2023/11/27 12:08:25;;;;;;;2.38;2.10;;;8.20;79.90;;;;;;4954708;28;20035;-76
2023/11/27 12:10:52;;;;;;;2.00;1.80;;;8.30;80.00;;;;;;4954679;28;20026;-75
2023/11/27 12:13:21;;;;;;;2.08;1.88;;;8.30;79.90;;;;;;4937865;29;20062;-75
2023/11/27 12:15:52;;;;;;;2.10;1.90;;;8.20;79.90;;;;;;4953726;29;20473;-76
2023/11/27 12:18:19;;;;;;;2.05;1.90;;;8.30;80.00;;;;;;4953664;28;20146;-76
2023/11/27 12:20:49;;;;;;;1.80;1.70;;;8.30;79.90;;;;;;4940416;29;20032;-75
2023/11/27 12:23:17;;;;;;;2.13;1.92;;;8.30;79.90;;;;;;4956926;29;20043;-76
2023/11/27 12:25:43;;;;;;;2.00;1.90;;;8.30;79.90;;;;;;4956975;29;20408;-74
2023/11/27 12:28:09;;;;;;;1.90;1.80;;;8.30;79.90;;;;;;4957273;29;20036;-75
2023/11/27 12:30:36;;;;;;;1.88;1.70;;;8.30;79.90;;;;;;4958468;28;20076;-75
2023/11/27 12:33:04;;;;;;;2.03;1.83;;;8.30;79.90;;;;;;4958400;28;20031;-75
2023/11/27 12:35:30;;;;;;;1.80;1.70;;;8.30;79.90;;;;;;4941374;29;20043;-74
2023/11/27 12:38:00;;;;;;;2.05;1.80;;;8.30;79.90;;;;;;4940780;29;20185;-75
2023/11/27 12:40:33;;;;;;;1.60;1.50;;;8.30;79.90;;;;;;4956900;29;20126;-75
2023/11/27 12:43:00;;;;;;;1.70;1.60;;;8.30;79.90;;;;;;4941512;29;20032;-75
2023/11/27 12:45:27;;;;;;;1.80;1.70;;;8.40;80.00;;;;;;4940817;29;20507;-75
2023/11/27 12:47:56;;;;;;;2.00;1.80;;;8.30;79.90;;;;;;4941176;29;20413;-75
2023/11/27 12:50:30;;;;;;;1.70;1.60;;;8.40;79.90;;;;;;4957539;28;20031;-74
2023/11/27 12:53:06;;;;;;;1.85;1.73;;;8.40;80.00;;;;;;4956273;29;20043;-74
2023/11/27 12:55:47;;;;;;;1.77;1.67;;;8.40;79.90;;;;;;4957427;28;20035;-76
2023/11/27 12:58:13;;;;;;;2.05;1.80;;;8.40;80.00;;;;;;4942133;29;20043;-74
2023/11/27 13:00:42;;;;;;;1.83;1.70;;;8.40;79.90;;;;;;4957307;28;20510;-74